Flight Track Log - Related Links

Times and Time Zones

All times are in EDT time to prevent confusion due to time zone crossing. See the UAL4696 flight status page for this flight to view local times or setup timezone preferences in your user account.

Time Position Orientation Groundspeed Altitude Reporting Facility
EDT Latitude Longitude Course Direction KTS MPH feet Rate Location/Type
Fri 11:18:44 PM 38.9667 -77.5167 North 190 219 3,400  Level Potomac TRACON
Fri 11:19:38 PM 39.0333 -77.5167 360° North 256 295 5,100 2,200 Climbing Potomac TRACON
Fri 11:20:00 PM 39.2153 -77.4500 North  Level FlightAware Approximate
Fri 11:20:44 PM 39.1167 -77.5167 360° North 309 356 7,800  Level Potomac TRACON
Fri 11:21:00 PM 39.3092 -77.4500 North  Level FlightAware Approximate
Fri 11:22:00 PM 39.4032 -77.4500 North  Level FlightAware Approximate
Fri 11:22:55 PM 39.3319 -77.4939 North 343 395 12,100  Level Washington Center
Fri 11:23:00 PM 39.4972 -77.4500 North  Level FlightAware Approximate
Fri 11:23:55 PM 39.4467 -77.4781 North 378 435 13,200  Level Washington Center
Fri 11:26:25 PM 39.7242 -77.4517 North 437 503 17,700 1,800 Climbing New York Center
Fri 11:27:25 PM 39.8575 -77.4536 359° North 431 496 19,500 1,538 Climbing New York Center
Fri 11:28:22 PM 39.9808 -77.4492 North 431 496 20,700 756 Climbing New York Center
Fri 11:29:24 PM 40.1103 -77.4453 North 448 516 21,000 150 Climbing New York Center
Fri 11:30:22 PM 40.2353 -77.4464 360° North 473 544 21,000  Level New York Center
Fri 11:31:23 PM 40.3731 -77.4433 North 486 559 21,000  Level New York Center
Fri 11:32:25 PM 40.5147 -77.4433 360° North 497 572 21,000  Level New York Center
Fri 11:33:22 PM 40.6458 -77.3767 21° North 497 572 21,000  Level New York Center
Fri 11:34:23 PM 40.7253 -77.2200 56° Northeast 472 543 21,000  Level New York Center
Fri 11:35:25 PM 40.7883 -77.0533 63° Northeast 481 554 21,000  Level New York Center
Fri 11:36:22 PM 40.8608 -76.9036 57° Northeast 481 554 21,000 -254 Level New York Center
Fri 11:37:23 PM 40.9814 -76.8703 12° North 430 495 20,500 -885 Descending New York Center
Fri 11:38:24 PM 41.0992 -76.8506 North 418 481 19,200 -744 Descending New York Center
Fri 11:39:24 PM 41.2108 -76.8247 10° North 418 481 19,000 -102 Descending New York Center
Fri 11:40:22 PM 41.3247 -76.7964 11° North 412 474 19,000  Level New York Center
Fri 11:41:22 PM 41.3914 -76.6722 54° Northeast 387 445 19,000 -49 Level New York Center
Fri 11:42:24 PM 41.3569 -76.5283 108° East 334 384 18,900 -780 Descending New York Center
Fri 11:43:25 PM 41.3208 -76.4119 112° Southeast 334 384 17,400 -1,475 Descending New York Center
Fri 11:44:22 PM 41.2844 -76.2983 113° Southeast 340 391 16,000 -1,692 Descending New York Center
Fri 11:45:22 PM 41.2514 -76.2019 114° Southeast 325 374 14,100 -1,438 Descending New York Center
Fri 11:46:23 PM 41.1900 -76.1336 140° Southeast 273 314 13,100 -541 Descending New York Center
Fri 11:47:24 PM 41.1411 -76.0636 133° Southeast 262 302 13,000 -50 Descending New York Center
Fri 11:48:24 PM 41.1039 -75.9617 116° Southeast 283 326 13,000  Level New York Center
Fri 11:49:22 PM 41.0681 -75.8761 119° Southeast 297 342 13,000  Level New York Center
Fri 11:50:22 PM 41.0078 -75.8194 145° Southeast 275 316 13,000  Level New York Center
Fri 11:51:23 PM 40.9772 -75.7044 109° East 282 325 13,000  Level New York Center
Fri 11:52:23 PM 40.9625 -75.6072 101° East 287 330 13,000 -403 Level New York Center
Fri 11:53:22 PM 40.9419 -75.4986 104° East 293 337 12,200 -1,200 Descending New York Center
Fri 11:54:23 PM 40.9208 -75.3983 106° East 293 337 10,600 -1,561 Descending New York Center
Fri 11:55:25 PM 40.9022 -75.2928 103° East 293 337 9,000 -1,350 Descending New York Center
Fri 11:56:23 PM 40.8792 -75.1842 106° East 283 326 7,900 -974 Descending New York Center
Fri 11:57:22 PM 40.8600 -75.0842 104° East 278 320 7,100 -446 Descending New York Center
Fri 11:58:24 PM 40.8406 -74.9869 105° East 283 326 7,000 -50 Descending New York Center
Fri 11:59:22 PM 40.8247 -74.9036 104° East 273 314 7,000 -450 Level New York Center
Sat 12:00:24 AM 40.7906 -74.8083 115° Southeast 261 300 6,100 -492 Descending New York Center
Sat 12:01:24 AM 40.7578 -74.7297 119° Southeast 249 287 6,000 -51 Descending New York Center
Sat 12:02:22 AM 40.7758 -74.6239 77° East 265 305 6,000 -100 Level New York Center
Sat 12:03:24 AM 40.8403 -74.5644 35° Northeast 267 307 5,800 -500 Descending New York Center
Sat 12:04:22 AM 40.9269 -74.5225 20° North 280 322 5,000 -400 Descending New York Center
Sat 12:05:24 AM 40.9728 -74.4564 47° Northeast 262 302 5,000  Level New York Center
Sat 12:06:24 AM 40.9697 -74.3547 92° East 238 274 5,000 -240 Level New York Center
Sat 12:07:29 AM 40.9500 -74.2500 104° East 260 299 4,500 -458 Descending New York TRACON
Sat 12:08:35 AM 40.9500 -74.1500 90° East 224 258 4,000 -571 Descending New York TRACON
Sat 12:09:35 AM 40.9000 -74.1000 143° Southeast 198 228 3,300 -450 Descending New York TRACON
Sat 12:10:35 AM 40.8500 -74.0833 166° South 190 219 3,100 -200 Descending New York TRACON
Sat 12:12:00 AM 40.7145 -74.1568 157° South  Level Estimated

Login

Don't have an account? Register now (free) for customized features, flight alerts, and more!